createdAt,value
2023-02-12T00:01:53.550Z,88.05
2023-02-12T00:04:22.335Z,88.58
2023-02-12T00:06:50.819Z,89.22
2023-02-12T00:09:19.327Z,89.39
2023-02-12T00:11:47.721Z,89.67
2023-02-12T00:14:16.464Z,89.93
2023-02-12T00:16:45.036Z,89.28
2023-02-12T00:19:13.688Z,89.23
2023-02-12T00:21:42.093Z,89.63
2023-02-12T00:24:10.674Z,89.36
2023-02-12T00:26:39.192Z,89.02
2023-02-12T00:29:07.900Z,89.18
2023-02-12T00:31:36.626Z,89.12
2023-02-12T00:34:05.129Z,88.84
2023-02-12T00:36:33.923Z,89.13
2023-02-12T00:39:02.631Z,89.63
2023-02-12T00:41:31.767Z,89.82
2023-02-12T00:44:00.421Z,90.09
2023-02-12T00:46:29.283Z,90.35
2023-02-12T00:48:58.187Z,89.59
2023-02-12T00:51:27.082Z,88.91
2023-02-12T00:53:56.021Z,88.79
2023-02-12T00:56:24.662Z,88.56
2023-02-12T00:58:53.258Z,88.96
2023-02-12T01:01:22.461Z,89.14
2023-02-12T01:03:51.113Z,88.89
2023-02-12T01:06:19.674Z,89.07
2023-02-12T01:08:51.976Z,89.29
2023-02-12T01:11:21.072Z,89.20
2023-02-12T01:13:49.789Z,89.40
2023-02-12T01:16:22.589Z,89.41
2023-02-12T01:18:55.787Z,89.38
2023-02-12T01:21:27.733Z,89.43
2023-02-12T01:23:57.225Z,89.54
2023-02-12T01:26:26.709Z,89.64
2023-02-12T01:28:58.758Z,89.61
2023-02-12T01:31:30.731Z,89.45
2023-02-12T01:34:01.013Z,89.67
2023-02-12T01:36:31.112Z,89.78
2023-02-12T01:39:03.071Z,89.50
2023-02-12T01:41:35.614Z,89.20
2023-02-12T01:44:10.058Z,89.35
2023-02-12T01:46:39.532Z,89.20
2023-02-12T01:49:14.786Z,88.32
2023-02-12T01:51:46.226Z,87.60
2023-02-12T01:54:15.953Z,86.77
2023-02-12T01:56:45.073Z,86.67
2023-02-12T01:59:13.802Z,86.79
2023-02-12T02:01:42.343Z,87.14
2023-02-12T02:04:20.113Z,86.89
2023-02-12T02:06:54.717Z,86.20
2023-02-12T02:09:23.800Z,86.20
2023-02-12T02:12:13.691Z,85.83
2023-02-12T02:14:43.109Z,85.98
2023-02-12T02:17:31.276Z,85.45
2023-02-12T02:20:32.905Z,85.44
2023-02-12T02:23:10.689Z,85.35
2023-02-12T02:26:01.431Z,85.52
2023-02-12T02:28:34.947Z,85.50
2023-02-12T02:31:21.116Z,85.15
2023-02-12T02:34:09.726Z,85.82
2023-02-12T02:36:54.096Z,85.12
2023-02-12T02:39:44.387Z,85.19
2023-02-12T02:42:38.973Z,85.59
2023-02-12T02:45:34.956Z,84.93
2023-02-12T02:48:33.068Z,84.21
2023-02-12T02:51:16.129Z,84.36
2023-02-12T02:53:51.986Z,83.96
2023-02-12T02:56:23.801Z,83.59
2023-02-12T02:59:01.409Z,84.27
2023-02-12T03:02:01.993Z,84.16
2023-02-12T03:04:36.184Z,83.81
2023-02-12T03:07:17.077Z,84.25
2023-02-12T03:09:50.113Z,84.54
2023-02-12T03:12:34.852Z,84.61
2023-02-12T03:15:20.236Z,84.51
2023-02-12T03:17:50.765Z,84.37
2023-02-12T03:20:29.393Z,84.05
2023-02-12T03:23:09.323Z,82.86
2023-02-12T03:25:57.402Z,83.34
2023-02-12T03:28:29.214Z,84.09
2023-02-12T03:31:06.971Z,84.38
2023-02-12T03:33:45.173Z,84.36
2023-02-12T03:36:38.073Z,83.84
2023-02-12T03:39:35.815Z,83.34
2023-02-12T03:42:19.031Z,83.62
2023-02-12T03:44:57.092Z,83.57
2023-02-12T03:47:41.727Z,83.83
2023-02-12T03:50:27.727Z,82.90
2023-02-12T03:52:56.332Z,83.33
2023-02-12T03:55:25.222Z,82.59
2023-02-12T03:58:01.101Z,82.40
2023-02-12T04:00:29.819Z,82.79
2023-02-12T04:02:58.825Z,82.73
2023-02-12T04:05:28.842Z,82.61
2023-02-12T04:07:59.099Z,82.87
2023-02-12T04:10:36.611Z,83.03
2023-02-12T04:13:15.163Z,83.04
2023-02-12T04:16:07.687Z,83.25
2023-02-12T04:18:49.935Z,83.09
2023-02-12T04:21:32.950Z,82.69
2023-02-12T04:24:31.032Z,82.84
2023-02-12T04:27:26.034Z,82.99
2023-02-12T04:30:15.316Z,83.26
2023-02-12T04:32:48.522Z,83.44
2023-02-12T04:35:48.834Z,83.47
2023-02-12T04:38:36.722Z,83.08
2023-02-12T04:41:07.503Z,83.23
2023-02-12T04:43:37.828Z,83.06
2023-02-12T04:46:08.980Z,83.13
2023-02-12T04:48:52.203Z,83.44
2023-02-12T04:51:21.266Z,83.39
2023-02-12T04:53:50.497Z,83.02
2023-02-12T04:56:19.019Z,83.02
2023-02-12T04:58:47.588Z,82.85
2023-02-12T05:01:16.393Z,83.09
2023-02-12T05:03:45.089Z,83.46
2023-02-12T05:06:13.676Z,83.50
2023-02-12T05:08:42.294Z,83.27
2023-02-12T05:11:12.227Z,83.25
2023-02-12T05:13:42.084Z,83.17
2023-02-12T05:16:10.814Z,82.97
2023-02-12T05:18:39.569Z,82.86
2023-02-12T05:21:08.107Z,82.92
2023-02-12T05:23:38.974Z,82.83
2023-02-12T05:26:11.890Z,83.05
2023-02-12T05:28:40.847Z,83.18
2023-02-12T05:31:11.628Z,82.38
2023-02-12T05:33:44.085Z,82.80
2023-02-12T05:36:19.390Z,83.02
2023-02-12T05:38:48.860Z,82.86
2023-02-12T05:41:20.847Z,82.87
2023-02-12T05:43:50.769Z,82.89
2023-02-12T05:46:20.873Z,82.61
2023-02-12T05:48:49.689Z,82.96
2023-02-12T05:51:22.173Z,83.34
2023-02-12T05:53:52.959Z,83.42
2023-02-12T05:56:33.438Z,83.42
2023-02-12T05:59:08.423Z,83.39
2023-02-12T06:01:40.322Z,82.90
2023-02-12T06:04:24.010Z,82.79
2023-02-12T06:06:54.778Z,82.62
2023-02-12T06:09:23.786Z,82.49
2023-02-12T06:11:52.524Z,82.59
2023-02-12T06:14:21.830Z,82.80
2023-02-12T06:16:51.801Z,82.92
2023-02-12T06:19:21.006Z,82.78
2023-02-12T06:21:49.861Z,83.01
2023-02-12T06:24:18.830Z,82.69
2023-02-12T06:26:51.173Z,82.51
2023-02-12T06:29:20.965Z,82.42
2023-02-12T06:31:49.886Z,82.47
2023-02-12T06:34:18.748Z,82.57
2023-02-12T06:36:48.621Z,82.18
2023-02-12T06:39:18.225Z,82.34
2023-02-12T06:41:46.789Z,82.21
2023-02-12T06:44:15.402Z,81.78
2023-02-12T06:46:44.906Z,81.71
2023-02-12T06:49:14.840Z,82.27
2023-02-12T06:51:43.437Z,82.11
2023-02-12T06:54:17.904Z,82.17
2023-02-12T06:56:46.564Z,82.35
2023-02-12T06:59:16.954Z,82.40
2023-02-12T07:01:45.602Z,82.24
2023-02-12T07:04:14.431Z,82.06
2023-02-12T07:06:43.233Z,81.97
2023-02-12T07:09:11.956Z,81.82
2023-02-12T07:11:40.627Z,81.57
2023-02-12T07:14:17.171Z,81.43
2023-02-12T07:16:45.840Z,81.72
2023-02-12T07:19:19.348Z,81.52
2023-02-12T07:21:48.518Z,81.77
2023-02-12T07:24:19.343Z,81.67
2023-02-12T07:26:50.583Z,81.54
2023-02-12T07:29:19.715Z,81.71
2023-02-12T07:31:49.435Z,81.64
2023-02-12T07:34:20.142Z,81.75
2023-02-12T07:36:51.483Z,81.58
2023-02-12T07:39:20.984Z,81.30
2023-02-12T07:41:51.607Z,81.31
2023-02-12T07:44:22.514Z,80.83
2023-02-12T07:46:51.534Z,80.64
2023-02-12T07:49:25.087Z,80.81
2023-02-12T07:51:57.763Z,81.07
2023-02-12T07:54:27.269Z,80.96
2023-02-12T07:56:56.116Z,80.74
2023-02-12T07:59:25.131Z,80.81
2023-02-12T08:01:55.575Z,79.53
2023-02-12T08:04:26.386Z,80.37
2023-02-12T08:06:58.651Z,80.61
2023-02-12T08:09:31.401Z,80.30
2023-02-12T08:12:00.220Z,79.97
2023-02-12T08:14:29.469Z,80.24
2023-02-12T08:17:00.939Z,79.47
2023-02-12T08:19:31.177Z,79.51
2023-02-12T08:21:59.787Z,78.29
2023-02-12T08:24:31.578Z,77.32
2023-02-12T08:27:00.720Z,77.65
2023-02-12T08:29:32.107Z,78.56
2023-02-12T08:32:06.693Z,78.80
2023-02-12T08:34:36.395Z,78.94
2023-02-12T08:37:06.940Z,78.92
2023-02-12T08:39:38.333Z,78.25
2023-02-12T08:42:07.639Z,78.18
2023-02-12T08:44:37.656Z,78.47
2023-02-12T08:47:07.402Z,78.74
2023-02-12T08:49:36.672Z,78.26
2023-02-12T08:52:08.248Z,78.26
2023-02-12T08:54:36.780Z,78.24
2023-02-12T08:57:05.798Z,78.11
2023-02-12T08:59:39.786Z,78.01
2023-02-12T09:02:11.246Z,77.00
2023-02-12T09:04:42.821Z,76.55
2023-02-12T09:07:11.812Z,77.63
2023-02-12T09:09:41.921Z,77.27
2023-02-12T09:12:10.735Z,76.45
2023-02-12T09:14:39.274Z,76.11
2023-02-12T09:17:08.015Z,76.35
2023-02-12T09:19:37.241Z,76.80
2023-02-12T09:22:05.848Z,76.59
2023-02-12T09:24:34.291Z,76.58
2023-02-12T09:27:02.870Z,75.74
2023-02-12T09:29:31.687Z,75.19
2023-02-12T09:32:00.310Z,75.47
2023-02-12T09:34:29.029Z,75.99
2023-02-12T09:36:57.648Z,76.34
2023-02-12T09:39:29.299Z,76.21
2023-02-12T09:42:20.116Z,76.26
2023-02-12T09:45:29.536Z,75.94
2023-02-12T09:48:18.380Z,76.12
2023-02-12T09:50:50.986Z,75.33
2023-02-12T09:53:23.953Z,73.93
2023-02-12T09:55:52.510Z,73.07
2023-02-12T09:58:34.481Z,73.67
2023-02-12T10:01:15.252Z,72.27
2023-02-12T10:03:45.912Z,73.44
2023-02-12T10:06:22.949Z,73.45
2023-02-12T10:08:58.137Z,73.62
2023-02-12T10:11:53.502Z,73.63
2023-02-12T10:14:42.184Z,73.54
2023-02-12T10:17:26.095Z,73.98
2023-02-12T10:20:09.995Z,74.19
2023-02-12T10:22:57.391Z,74.26
2023-02-12T10:25:53.008Z,72.86
2023-02-12T10:28:33.208Z,72.37
2023-02-12T10:31:06.285Z,71.17
2023-02-12T10:33:41.534Z,71.75
2023-02-12T10:36:33.700Z,71.16
2023-02-12T10:39:09.214Z,70.85
2023-02-12T10:41:46.110Z,71.75
2023-02-12T10:44:14.798Z,71.26
2023-02-12T10:46:43.794Z,71.46
2023-02-12T10:49:16.189Z,71.04
2023-02-12T10:52:03.962Z,70.92
2023-02-12T10:54:47.325Z,71.15
2023-02-12T10:57:26.899Z,71.13
2023-02-12T10:59:57.735Z,71.88
2023-02-12T11:02:33.063Z,72.76
2023-02-12T11:05:26.614Z,73.01
2023-02-12T11:07:58.797Z,72.72
2023-02-12T11:10:32.226Z,72.58
2023-02-12T11:13:02.328Z,72.83
2023-02-12T11:15:38.389Z,71.84
2023-02-12T11:18:08.883Z,72.36
2023-02-12T11:20:49.597Z,72.52
2023-02-12T11:23:31.094Z,72.43
2023-02-12T11:26:01.427Z,71.81
2023-02-12T11:28:32.379Z,72.17
2023-02-12T11:31:22.943Z,71.67
2023-02-12T11:34:20.089Z,71.89
2023-02-12T11:36:54.702Z,72.72
2023-02-12T11:39:33.974Z,72.34
2023-02-12T11:42:06.040Z,72.33
2023-02-12T11:44:44.703Z,72.55
2023-02-12T11:47:20.769Z,73.13
2023-02-12T11:49:55.518Z,71.47
2023-02-12T11:52:34.961Z,71.29
2023-02-12T11:55:19.567Z,71.89
2023-02-12T11:57:52.597Z,72.26
2023-02-12T12:00:25.541Z,72.51
2023-02-12T12:03:02.563Z,72.37
2023-02-12T12:05:39.280Z,72.32
2023-02-12T12:08:16.964Z,72.61
2023-02-12T12:10:53.169Z,72.30
2023-02-12T12:13:40.008Z,72.42
2023-02-12T12:16:39.659Z,72.55
2023-02-12T12:19:52.844Z,72.66
2023-02-12T12:22:37.310Z,72.95
2023-02-12T12:25:19.395Z,72.20
2023-02-12T12:28:03.677Z,71.74
2023-02-12T12:31:05.346Z,71.51
2023-02-12T12:33:47.710Z,71.41
2023-02-12T12:36:59.624Z,71.41
2023-02-12T12:39:44.126Z,70.05
2023-02-12T12:42:51.120Z,69.72
2023-02-12T12:45:44.805Z,69.65
2023-02-12T12:48:32.443Z,69.83
2023-02-12T12:51:20.959Z,70.09
2023-02-12T12:54:06.971Z,70.45
2023-02-12T12:57:28.312Z,69.89
2023-02-12T13:00:25.015Z,69.50
2023-02-12T13:03:13.921Z,67.70
2023-02-12T13:05:52.081Z,67.17
2023-02-12T13:08:21.216Z,65.78
2023-02-12T13:10:56.976Z,64.86
2023-02-12T13:13:38.085Z,65.20
2023-02-12T13:16:07.673Z,64.88
2023-02-12T13:19:01.153Z,63.30
2023-02-12T13:21:38.083Z,63.33
2023-02-12T13:24:25.159Z,63.61
2023-02-12T13:27:08.514Z,63.31
2023-02-12T13:30:20.711Z,62.29
2023-02-12T13:33:07.072Z,61.97
2023-02-12T13:35:42.597Z,62.78
2023-02-12T13:38:19.591Z,63.78
2023-02-12T13:40:50.161Z,64.38
2023-02-12T13:43:24.781Z,64.90
2023-02-12T13:46:04.119Z,65.68
2023-02-12T13:48:52.707Z,66.24
2023-02-12T13:51:55.876Z,66.74
2023-02-12T13:54:46.492Z,67.20
2023-02-12T13:57:18.419Z,67.39
2023-02-12T13:59:57.570Z,68.20
2023-02-12T14:02:53.476Z,68.72
2023-02-12T14:05:29.333Z,69.24
2023-02-12T14:08:02.404Z,69.27
2023-02-12T14:10:38.862Z,69.78
2023-02-12T14:13:18.374Z,70.24
2023-02-12T14:15:55.368Z,71.08
2023-02-12T14:18:26.998Z,71.42
2023-02-12T14:21:14.772Z,71.68
2023-02-12T14:23:45.064Z,71.93
2023-02-12T14:26:21.663Z,72.22
2023-02-12T14:29:05.289Z,72.80
2023-02-12T14:31:39.907Z,73.32
2023-02-12T14:34:22.802Z,73.61
2023-02-12T14:37:18.761Z,73.94
2023-02-12T14:39:53.077Z,74.63
2023-02-12T14:42:25.272Z,75.03
2023-02-12T14:44:58.608Z,75.60
2023-02-12T14:47:34.256Z,76.13
2023-02-12T14:50:14.021Z,76.44
2023-02-12T14:53:13.294Z,76.91
2023-02-12T14:55:53.110Z,77.41
2023-02-12T14:58:26.368Z,77.86
2023-02-12T15:00:58.781Z,78.52
2023-02-12T15:03:51.972Z,78.57
2023-02-12T15:06:25.719Z,78.93
2023-02-12T15:09:01.903Z,79.17
2023-02-12T15:11:35.990Z,79.55
2023-02-12T15:14:19.570Z,79.63
2023-02-12T15:17:07.618Z,79.85
2023-02-12T15:19:42.933Z,79.90
2023-02-12T15:22:24.238Z,80.19
2023-02-12T15:24:53.676Z,80.37
2023-02-12T15:27:25.062Z,80.58
2023-02-12T15:29:57.656Z,81.12
2023-02-12T15:32:33.856Z,81.17
2023-02-12T15:35:03.240Z,81.52
2023-02-12T15:37:33.771Z,81.62
2023-02-12T15:40:11.976Z,81.76
2023-02-12T15:42:51.876Z,81.79
2023-02-12T15:45:26.090Z,82.07
2023-02-12T15:48:10.067Z,82.38
2023-02-12T15:51:01.239Z,82.55
2023-02-12T15:53:33.707Z,82.74
2023-02-12T15:56:04.530Z,82.88
2023-02-12T15:58:58.456Z,83.00
2023-02-12T16:01:35.502Z,83.31
2023-02-12T16:04:09.916Z,83.41
2023-02-12T16:06:40.231Z,83.60
2023-02-12T16:09:14.277Z,83.71
2023-02-12T16:11:48.789Z,83.90
2023-02-12T16:14:27.251Z,84.45
2023-02-12T16:17:02.081Z,84.63
2023-02-12T16:19:33.520Z,85.01
2023-02-12T16:22:23.199Z,85.16
2023-02-12T16:24:54.560Z,85.49
2023-02-12T16:27:33.864Z,85.71
2023-02-12T16:30:35.131Z,85.94
2023-02-12T16:33:26.374Z,86.13
2023-02-12T16:36:23.411Z,86.14
2023-02-12T16:38:56.311Z,86.22
2023-02-12T16:41:31.249Z,86.54
2023-02-12T16:44:01.836Z,88.01
2023-02-12T16:51:40.587Z,88.20
2023-02-12T16:54:33.536Z,88.37
2023-02-12T16:57:03.809Z,88.22
2023-02-12T16:59:32.750Z,87.94
2023-02-12T17:09:50.364Z,88.92
2023-02-12T17:12:20.893Z,88.53
2023-02-12T17:14:53.236Z,88.65
2023-02-12T17:17:27.995Z,88.62
2023-02-12T17:19:56.788Z,88.69
2023-02-12T17:22:29.129Z,88.99
2023-02-12T17:24:58.325Z,88.94
2023-02-12T17:27:27.202Z,89.23
2023-02-12T17:29:57.645Z,89.51
2023-02-12T17:32:26.698Z,89.48
2023-02-12T17:34:56.517Z,89.70
2023-02-12T17:37:26.053Z,89.63
2023-02-12T17:39:56.572Z,89.66
2023-02-12T17:42:25.533Z,89.71
2023-02-12T17:44:54.649Z,89.99
2023-02-12T17:47:27.534Z,90.02
2023-02-12T17:49:56.799Z,90.03
2023-02-12T17:52:26.158Z,89.94
2023-02-12T17:54:55.653Z,89.91
2023-02-12T17:57:25.330Z,90.05
2023-02-12T17:59:54.344Z,90.27
2023-02-12T18:02:24.255Z,90.26
2023-02-12T18:04:56.836Z,90.41
2023-02-12T18:07:26.542Z,90.40
2023-02-12T18:10:00.708Z,90.50
2023-02-12T18:12:40.124Z,90.51
2023-02-12T18:15:18.609Z,90.39
2023-02-12T18:17:49.958Z,90.64
2023-02-12T18:20:18.735Z,90.88
2023-02-12T18:22:48.367Z,90.94
2023-02-12T18:25:20.649Z,91.28
2023-02-12T18:27:51.235Z,91.89
2023-02-12T18:30:22.926Z,92.57
2023-02-12T18:32:55.679Z,93.30
2023-02-12T18:35:26.843Z,94.15
2023-02-12T18:37:55.999Z,95.01
2023-02-12T18:40:27.604Z,95.06
2023-02-12T18:42:56.898Z,94.61
2023-02-12T18:45:26.707Z,94.70
2023-02-12T18:47:56.145Z,94.85
2023-02-12T18:50:25.459Z,94.83
2023-02-12T18:52:55.849Z,94.81
2023-02-12T18:55:35.019Z,95.14
2023-02-12T18:58:08.634Z,95.15
2023-02-12T19:00:39.657Z,95.60
2023-02-12T19:03:14.974Z,95.65
2023-02-12T19:05:44.139Z,95.87
2023-02-12T19:08:15.996Z,95.76
2023-02-12T19:10:49.887Z,96.27
2023-02-12T19:13:19.280Z,96.28
2023-02-12T19:15:54.324Z,95.91
2023-02-12T19:18:23.697Z,95.92
2023-02-12T19:20:55.283Z,96.14
2023-02-12T19:23:24.248Z,95.76
2023-02-12T19:25:53.172Z,96.17
2023-02-12T19:28:24.409Z,96.13
2023-02-12T19:30:53.209Z,96.15
2023-02-12T19:33:21.962Z,95.81
2023-02-12T19:36:18.373Z,96.03
2023-02-12T19:38:50.083Z,96.07
2023-02-12T19:41:21.694Z,96.08
2023-02-12T19:43:57.095Z,96.14
2023-02-12T19:46:28.462Z,96.31
2023-02-12T19:49:00.646Z,96.57
2023-02-12T19:51:30.706Z,96.85
2023-02-12T19:54:05.044Z,97.10
2023-02-12T19:56:35.819Z,97.17
2023-02-12T19:59:05.069Z,96.64
2023-02-12T20:01:39.478Z,97.71
2023-02-12T20:04:08.423Z,97.99
2023-02-12T20:06:38.399Z,98.23
2023-02-12T20:09:08.982Z,98.10
2023-02-12T20:11:39.131Z,99.07
2023-02-12T20:14:10.524Z,98.37
2023-02-12T20:17:14.016Z,98.00
2023-02-12T20:19:45.062Z,97.81
2023-02-12T20:22:14.401Z,98.00
2023-02-12T20:24:43.113Z,98.25
2023-02-12T20:27:12.560Z,98.77
2023-02-12T20:29:41.665Z,99.00
2023-02-12T20:32:11.979Z,99.48
2023-02-12T20:34:50.438Z,99.61
2023-02-12T20:37:20.343Z,99.22
2023-02-12T20:39:49.244Z,98.86
2023-02-12T20:42:21.022Z,99.03
2023-02-12T20:44:50.359Z,99.44
2023-02-12T20:47:19.474Z,99.72
2023-02-12T20:49:48.200Z,100.00
2023-02-12T20:52:17.184Z,100.00
2023-02-12T20:54:48.007Z,100.00
2023-02-12T20:57:18.045Z,100.00
2023-02-12T20:59:50.104Z,100.00
2023-02-12T21:02:19.006Z,99.97
2023-02-12T21:04:51.392Z,100.00
2023-02-12T21:07:20.120Z,99.91
2023-02-12T21:09:49.350Z,99.87
2023-02-12T21:12:20.292Z,99.99
2023-02-12T21:14:49.484Z,100.00
2023-02-12T21:17:20.591Z,100.00
2023-02-12T21:19:49.722Z,100.00
2023-02-12T21:22:18.507Z,100.00
2023-02-12T21:24:47.371Z,100.00
2023-02-12T21:27:16.989Z,100.00
2023-02-12T21:29:46.185Z,100.00
2023-02-12T21:32:19.576Z,100.00
2023-02-12T21:34:49.132Z,100.00
2023-02-12T21:37:18.189Z,100.00
2023-02-12T21:39:47.213Z,100.00
2023-02-12T21:42:16.607Z,100.00
2023-02-12T21:44:45.762Z,100.00
2023-02-12T21:47:15.007Z,100.00
2023-02-12T21:49:44.037Z,100.00
2023-02-12T21:52:13.821Z,100.00
2023-02-12T21:54:43.695Z,100.00
2023-02-12T21:57:18.614Z,100.00
2023-02-12T21:59:47.360Z,100.00
2023-02-12T22:02:16.026Z,100.00
2023-02-12T22:04:45.812Z,100.00
2023-02-12T22:07:16.385Z,100.00
2023-02-12T22:09:44.719Z,100.00
2023-02-12T22:12:13.246Z,100.00
2023-02-12T22:14:41.812Z,100.00
2023-02-12T22:17:10.363Z,100.00
2023-02-12T22:19:39.656Z,100.00
2023-02-12T22:22:11.524Z,100.00
2023-02-12T22:24:39.976Z,100.00
2023-02-12T22:27:08.696Z,100.00
2023-02-12T22:29:37.396Z,100.00
2023-02-12T22:32:05.951Z,100.00
2023-02-12T22:34:34.708Z,100.00
2023-02-12T22:37:03.312Z,100.00
2023-02-12T22:39:31.798Z,100.00
2023-02-12T22:42:00.399Z,100.00
2023-02-12T22:44:29.130Z,100.00
2023-02-12T22:46:57.689Z,100.00
2023-02-12T22:49:26.240Z,100.00
2023-02-12T22:51:55.012Z,100.00
2023-02-12T22:54:23.677Z,100.00
2023-02-12T22:56:53.137Z,100.00
2023-02-12T22:59:21.845Z,100.00
2023-02-12T23:01:50.791Z,100.00
2023-02-12T23:04:20.105Z,100.00
2023-02-12T23:06:48.795Z,100.00
2023-02-12T23:09:19.379Z,100.00
2023-02-12T23:11:48.690Z,100.00
2023-02-12T23:14:18.229Z,100.00
2023-02-12T23:16:47.394Z,100.00
2023-02-12T23:19:16.245Z,100.00
2023-02-12T23:21:45.096Z,100.00
2023-02-12T23:24:14.572Z,100.00
2023-02-12T23:26:43.555Z,100.00
2023-02-12T23:29:13.855Z,100.00
2023-02-12T23:31:45.823Z,100.00
2023-02-12T23:34:14.646Z,100.00
2023-02-12T23:36:48.970Z,100.00
2023-02-12T23:39:18.097Z,100.00
2023-02-12T23:41:48.963Z,100.00
2023-02-12T23:44:25.020Z,100.00
2023-02-12T23:46:56.960Z,100.00
2023-02-12T23:49:27.030Z,100.00
2023-02-12T23:51:59.008Z,100.00
2023-02-12T23:54:28.672Z,100.00
2023-02-12T23:56:57.306Z,100.00
2023-02-12T23:59:26.594Z,100.00
